createdAt,value
2019-02-14T00:00:50.922Z,6.42
2019-02-14T00:01:54.563Z,6.08
2019-02-14T00:02:58.285Z,5.70
2019-02-14T00:04:01.910Z,6.03
2019-02-14T00:05:05.863Z,5.92
2019-02-14T00:06:09.431Z,5.00
2019-02-14T00:07:13.128Z,5.03
2019-02-14T00:08:16.771Z,5.30
2019-02-14T00:09:20.484Z,6.92
2019-02-14T00:10:24.143Z,6.60
2019-02-14T00:11:27.779Z,6.45
2019-02-14T00:12:31.415Z,6.22
2019-02-14T00:13:35.855Z,6.62
2019-02-14T00:14:39.489Z,6.25
2019-02-14T00:15:43.147Z,6.87
2019-02-14T00:16:46.784Z,6.28
2019-02-14T00:17:50.418Z,4.75
2019-02-14T00:18:54.063Z,4.15
2019-02-14T00:19:57.701Z,5.40
2019-02-14T00:21:01.373Z,6.10
2019-02-14T00:22:05.006Z,5.30
2019-02-14T00:23:08.630Z,5.83
2019-02-14T00:24:12.275Z,5.20
2019-02-14T00:25:15.912Z,5.03
2019-02-14T00:26:19.510Z,7.15
2019-02-14T00:27:23.189Z,7.03
2019-02-14T00:28:26.845Z,8.28
2019-02-14T00:29:30.845Z,7.25
2019-02-14T00:30:34.441Z,7.90
2019-02-14T00:31:38.045Z,6.60
2019-02-14T00:32:41.781Z,7.92
2019-02-14T00:33:45.409Z,5.62
2019-02-14T00:34:49.057Z,5.75
2019-02-14T00:35:52.702Z,5.35
2019-02-14T00:36:56.372Z,5.65
2019-02-14T00:37:59.963Z,6.28
2019-02-14T00:39:04.657Z,6.85
2019-02-14T00:40:09.311Z,6.50
2019-02-14T00:41:12.875Z,6.10
2019-02-14T00:42:16.547Z,11.73
2019-02-14T00:43:20.178Z,12.15
2019-02-14T00:44:23.886Z,11.48
2019-02-14T00:45:27.531Z,10.78
2019-02-14T00:46:31.175Z,10.25
2019-02-14T00:47:34.931Z,12.93
2019-02-14T00:48:38.564Z,12.30
2019-02-14T00:49:42.197Z,12.25
2019-02-14T00:50:52.225Z,8.25
2019-02-14T00:51:55.859Z,8.75
2019-02-14T00:52:59.524Z,9.70
2019-02-14T00:54:03.093Z,8.33
2019-02-14T00:55:07.236Z,7.85
2019-02-14T00:56:10.869Z,7.92
2019-02-14T00:57:14.471Z,7.70
2019-02-14T00:58:18.125Z,4.35
2019-02-14T00:59:21.769Z,6.65
2019-02-14T01:00:25.408Z,8.35
2019-02-14T01:01:29.048Z,7.03
2019-02-14T01:02:35.994Z,4.97
2019-02-14T01:03:39.741Z,6.10
2019-02-14T01:04:43.376Z,8.23
2019-02-14T01:05:47.021Z,10.40
2019-02-14T01:06:50.591Z,6.28
2019-02-14T01:07:54.157Z,4.75
2019-02-14T01:08:57.810Z,4.65
2019-02-14T01:10:01.446Z,5.15
2019-02-14T01:11:05.086Z,5.40
2019-02-14T01:12:09.290Z,5.35
2019-02-14T01:13:12.922Z,6.78
2019-02-14T01:14:16.538Z,4.90
2019-02-14T01:15:21.753Z,4.28
2019-02-14T01:16:25.495Z,6.90
2019-02-14T01:17:29.132Z,6.62
2019-02-14T01:18:32.840Z,7.85
2019-02-14T01:19:36.552Z,7.55
2019-02-14T01:20:40.232Z,8.03
2019-02-14T01:21:53.107Z,9.30
2019-02-14T01:22:56.730Z,7.95
2019-02-14T01:24:00.326Z,9.15
2019-02-14T01:25:03.937Z,9.63
2019-02-14T01:26:07.866Z,12.98
2019-02-14T01:27:11.539Z,8.53
2019-02-14T01:28:15.254Z,8.55
2019-02-14T01:29:18.890Z,6.33
2019-02-14T01:30:22.448Z,4.60
2019-02-14T01:31:26.143Z,3.30
2019-02-14T01:32:29.823Z,3.27
2019-02-14T01:34:54.596Z,3.37
2019-02-14T01:35:58.329Z,3.55
2019-02-14T01:37:01.961Z,4.00
2019-02-14T01:38:05.637Z,2.90
2019-02-14T01:39:09.590Z,3.10
2019-02-14T01:40:13.228Z,3.52
2019-02-14T01:41:17.220Z,4.00
2019-02-14T01:42:20.961Z,4.45
2019-02-14T01:43:24.981Z,4.00
2019-02-14T01:44:28.618Z,4.97
2019-02-14T01:45:32.265Z,4.65
2019-02-14T01:46:36.266Z,4.00
2019-02-14T01:47:39.836Z,6.20
2019-02-14T01:48:43.494Z,4.00
2019-02-14T01:49:47.129Z,3.55
2019-02-14T01:50:50.760Z,3.30
2019-02-14T01:51:54.329Z,4.00
2019-02-14T01:52:57.988Z,4.20
2019-02-14T01:54:01.663Z,4.70
2019-02-14T01:55:05.996Z,4.10
2019-02-14T01:56:09.631Z,3.52
2019-02-14T01:57:13.273Z,2.75
2019-02-14T01:58:16.844Z,3.50
2019-02-14T01:59:20.890Z,3.35
2019-02-14T02:00:24.522Z,3.45
2019-02-14T02:01:28.354Z,4.10
2019-02-14T02:02:32.050Z,4.28
2019-02-14T02:03:35.703Z,4.22
2019-02-14T02:04:39.366Z,4.22
2019-02-14T02:05:50.567Z,4.20
2019-02-14T02:06:48.523Z,4.40
2019-02-14T02:07:52.166Z,3.75
2019-02-14T02:08:55.732Z,4.12
2019-02-14T02:09:59.401Z,4.25
2019-02-14T02:11:03.908Z,3.70
2019-02-14T02:12:07.725Z,3.30
2019-02-14T02:13:11.354Z,4.00
2019-02-14T02:14:14.917Z,3.95
2019-02-14T02:15:18.587Z,4.30
2019-02-14T02:16:22.214Z,4.42
2019-02-14T02:17:26.001Z,4.75
2019-02-14T02:18:29.603Z,4.08
2019-02-14T02:19:33.169Z,4.58
2019-02-14T02:20:36.811Z,3.98
2019-02-14T02:21:40.383Z,4.70
2019-02-14T02:22:44.042Z,4.53
2019-02-14T02:23:47.681Z,3.72
2019-02-14T02:24:51.715Z,3.35
2019-02-14T02:25:55.676Z,3.15
2019-02-14T02:26:59.317Z,3.17
2019-02-14T02:28:02.990Z,3.62
2019-02-14T02:29:06.634Z,3.20
2019-02-14T02:30:14.958Z,2.75
2019-02-14T02:31:18.580Z,3.47
2019-02-14T02:32:22.151Z,4.17
2019-02-14T02:33:25.908Z,3.80
2019-02-14T02:34:29.830Z,3.27
2019-02-14T02:35:33.460Z,3.12
2019-02-14T02:36:37.090Z,2.90
2019-02-14T02:37:40.740Z,3.65
2019-02-14T02:38:44.383Z,3.47
2019-02-14T02:39:47.987Z,4.12
2019-02-14T02:40:51.673Z,3.80
2019-02-14T02:41:55.288Z,3.58
2019-02-14T02:42:58.861Z,3.50
2019-02-14T02:44:02.538Z,3.47
2019-02-14T02:45:09.204Z,3.17
2019-02-14T02:46:12.821Z,3.60
2019-02-14T02:47:16.809Z,4.03
2019-02-14T02:48:20.449Z,3.87
2019-02-14T02:49:24.080Z,3.40
2019-02-14T02:50:27.712Z,3.58
2019-02-14T02:51:31.356Z,5.12
2019-02-14T02:52:35.017Z,4.25
2019-02-14T02:53:38.644Z,4.60
2019-02-14T02:54:42.658Z,4.70
2019-02-14T02:55:46.715Z,3.65
2019-02-14T02:56:50.354Z,3.60
2019-02-14T02:57:54.015Z,4.37
2019-02-14T02:58:57.650Z,4.53
2019-02-14T03:00:01.279Z,4.05
2019-02-14T03:01:05.009Z,5.05
2019-02-14T03:02:08.960Z,4.80
2019-02-14T03:03:12.691Z,4.10
2019-02-14T03:04:16.284Z,3.98
2019-02-14T03:05:19.905Z,5.05
2019-02-14T03:06:23.540Z,4.00
2019-02-14T03:07:27.184Z,4.05
2019-02-14T03:08:30.823Z,4.03
2019-02-14T03:09:34.550Z,4.30
2019-02-14T03:10:38.189Z,4.10
2019-02-14T03:11:42.059Z,4.70
2019-02-14T03:12:45.735Z,5.20
2019-02-14T03:13:49.332Z,4.85
2019-02-14T03:14:52.977Z,5.03
2019-02-14T03:15:56.707Z,5.20
2019-02-14T03:17:00.335Z,5.08
2019-02-14T03:18:03.971Z,4.80
2019-02-14T03:19:07.638Z,4.67
2019-02-14T03:20:12.571Z,4.00
2019-02-14T03:21:16.199Z,4.17
2019-02-14T03:22:19.889Z,3.83
2019-02-14T03:23:23.521Z,3.95
2019-02-14T03:24:27.518Z,4.92
2019-02-14T03:25:31.139Z,4.17
2019-02-14T03:26:34.777Z,5.25
2019-02-14T03:27:38.334Z,5.85
2019-02-14T03:28:42.284Z,5.67
2019-02-14T03:29:45.949Z,5.10
2019-02-14T03:30:49.597Z,4.40
2019-02-14T03:31:53.207Z,4.15
2019-02-14T03:32:56.820Z,3.75
2019-02-14T03:34:00.456Z,3.83
2019-02-14T03:35:04.531Z,4.22
2019-02-14T03:36:08.155Z,4.35
2019-02-14T03:37:11.799Z,4.85
2019-02-14T03:38:15.428Z,4.53
2019-02-14T03:39:19.064Z,4.17
2019-02-14T03:40:22.736Z,4.08
2019-02-14T03:41:26.366Z,4.25
2019-02-14T03:42:30.002Z,4.33
2019-02-14T03:43:33.627Z,3.52
2019-02-14T03:44:37.266Z,4.22
2019-02-14T03:45:40.923Z,4.28
2019-02-14T03:46:44.588Z,4.17
2019-02-14T03:47:48.222Z,3.40
2019-02-14T03:48:51.851Z,4.12
2019-02-14T03:49:55.475Z,3.40
2019-02-14T03:50:59.095Z,4.40
2019-02-14T03:52:02.730Z,4.37
2019-02-14T03:53:06.746Z,6.72
2019-02-14T03:54:10.383Z,7.08
2019-02-14T03:55:13.944Z,6.92
2019-02-14T03:56:17.920Z,8.05
2019-02-14T03:57:21.630Z,11.50
2019-02-14T03:58:25.274Z,12.35
2019-02-14T03:59:28.846Z,12.35
2019-02-14T04:00:32.863Z,13.85
2019-02-14T04:01:36.543Z,19.95
2019-02-14T04:02:40.182Z,16.10
2019-02-14T04:03:43.822Z,14.45
2019-02-14T04:04:47.466Z,13.03
2019-02-14T04:05:51.072Z,10.32
2019-02-14T04:06:54.731Z,7.87
2019-02-14T04:07:58.373Z,6.50
2019-02-14T04:09:02.307Z,5.90
2019-02-14T04:10:11.337Z,5.87
2019-02-14T04:11:14.900Z,8.45
2019-02-14T04:12:18.576Z,8.13
2019-02-14T04:13:22.282Z,7.70
2019-02-14T04:14:25.918Z,11.53
2019-02-14T04:15:29.564Z,10.85
2019-02-14T04:16:33.796Z,7.62
2019-02-14T04:17:37.473Z,7.80
2019-02-14T04:18:41.098Z,8.48
2019-02-14T04:19:44.733Z,9.50
2019-02-14T04:20:48.441Z,9.13
2019-02-14T04:21:52.074Z,9.68
2019-02-14T04:22:55.744Z,10.75
2019-02-14T04:23:59.379Z,7.67
2019-02-14T04:25:03.090Z,5.90
2019-02-14T04:26:06.724Z,6.10
2019-02-14T04:27:10.363Z,6.10
2019-02-14T04:28:14.404Z,4.95
2019-02-14T04:29:18.045Z,5.72
2019-02-14T04:30:21.756Z,6.40
2019-02-14T04:31:25.401Z,6.45
2019-02-14T04:32:29.038Z,7.08
2019-02-14T04:33:32.667Z,9.58
2019-02-14T04:34:36.323Z,9.43
2019-02-14T04:35:39.953Z,8.23
2019-02-14T04:36:43.586Z,9.20
2019-02-14T04:37:47.225Z,9.10
2019-02-14T04:38:50.817Z,8.38
2019-02-14T04:39:54.842Z,9.98
2019-02-14T04:40:58.483Z,22.73
2019-02-14T04:42:02.118Z,12.55
2019-02-14T04:43:05.797Z,10.65
2019-02-14T04:44:09.410Z,10.23
2019-02-14T04:45:14.047Z,9.65
2019-02-14T04:46:17.683Z,8.85
2019-02-14T04:47:21.395Z,6.37
2019-02-14T04:48:25.028Z,7.97
2019-02-14T04:49:28.837Z,8.40
2019-02-14T04:50:32.467Z,7.70
2019-02-14T04:51:36.099Z,7.12
2019-02-14T04:52:39.743Z,7.10
2019-02-14T04:53:43.377Z,7.45
2019-02-14T04:54:47.363Z,7.87
2019-02-14T04:55:51.058Z,9.45
2019-02-14T04:56:54.689Z,8.80
2019-02-14T04:57:58.329Z,8.15
2019-02-14T04:59:01.972Z,9.48
2019-02-14T05:00:09.421Z,11.90
2019-02-14T05:01:13.070Z,12.20
2019-02-14T05:02:16.823Z,9.35
2019-02-14T05:03:20.454Z,9.08
2019-02-14T05:04:24.089Z,8.73
2019-02-14T05:05:27.755Z,8.80
2019-02-14T05:06:31.389Z,8.05
2019-02-14T05:07:35.018Z,7.50
2019-02-14T05:08:38.598Z,6.78
2019-02-14T05:09:42.694Z,7.25
2019-02-14T05:10:46.469Z,7.53
2019-02-14T05:11:50.063Z,7.10
2019-02-14T05:12:54.035Z,7.47
2019-02-14T05:13:57.606Z,7.05
2019-02-14T05:15:01.253Z,6.90
2019-02-14T05:16:05.604Z,6.12
2019-02-14T05:17:09.786Z,6.25
2019-02-14T05:18:13.487Z,7.10
2019-02-14T05:19:17.118Z,6.95
2019-02-14T05:20:20.670Z,7.42
2019-02-14T05:21:24.714Z,7.53
2019-02-14T05:22:28.375Z,9.00
2019-02-14T05:23:32.476Z,8.05
2019-02-14T05:24:36.185Z,7.95
2019-02-14T05:25:39.819Z,8.85
2019-02-14T05:26:43.563Z,10.38
2019-02-14T05:27:47.209Z,9.30
2019-02-14T05:28:51.177Z,8.45
2019-02-14T05:29:54.829Z,8.23
2019-02-14T05:30:58.774Z,8.63
2019-02-14T05:32:02.809Z,10.78
2019-02-14T05:33:06.768Z,11.73
2019-02-14T05:34:10.507Z,14.85
2019-02-14T05:35:14.151Z,15.65
2019-02-14T05:36:17.781Z,21.20
2019-02-14T05:37:21.430Z,20.72
2019-02-14T05:38:25.006Z,23.65
2019-02-14T05:39:28.658Z,18.98
2019-02-14T05:40:32.228Z,15.25
2019-02-14T05:41:35.865Z,17.25
2019-02-14T05:42:39.839Z,13.80
2019-02-14T05:43:43.411Z,13.85
2019-02-14T05:44:46.983Z,11.63
2019-02-14T05:45:50.627Z,12.65
2019-02-14T05:46:54.571Z,15.38
2019-02-14T05:47:58.243Z,14.35
2019-02-14T05:49:01.886Z,11.05
2019-02-14T05:50:08.404Z,10.08
2019-02-14T05:51:12.051Z,8.53
2019-02-14T05:52:15.704Z,11.40
2019-02-14T05:53:19.327Z,12.68
2019-02-14T05:54:22.954Z,11.25
2019-02-14T05:55:26.608Z,9.70
2019-02-14T05:56:30.234Z,9.25
2019-02-14T05:57:33.876Z,8.05
2019-02-14T05:58:37.471Z,9.50
2019-02-14T05:59:41.106Z,8.98
2019-02-14T06:00:44.806Z,9.93
2019-02-14T06:01:48.521Z,9.65
2019-02-14T06:02:52.158Z,9.30
2019-02-14T06:03:55.792Z,9.08
2019-02-14T06:04:59.746Z,9.08
2019-02-14T06:06:03.384Z,8.35
2019-02-14T06:07:07.024Z,9.45
2019-02-14T06:08:10.768Z,8.93
2019-02-14T06:09:14.500Z,7.90
2019-02-14T06:10:18.232Z,8.63
2019-02-14T06:11:21.868Z,9.15
2019-02-14T06:12:25.498Z,9.20
2019-02-14T06:13:28.997Z,9.35
2019-02-14T06:14:32.666Z,9.73
2019-02-14T06:15:36.646Z,10.40
2019-02-14T06:16:40.273Z,9.80
2019-02-14T06:17:43.834Z,9.03
2019-02-14T06:18:47.761Z,9.28
2019-02-14T06:19:51.487Z,8.10
2019-02-14T06:20:55.122Z,8.83
2019-02-14T06:21:58.764Z,8.65
2019-02-14T06:23:02.411Z,9.50
2019-02-14T06:24:06.115Z,8.55
2019-02-14T06:25:15.300Z,10.05
2019-02-14T06:26:20.618Z,12.40
2019-02-14T06:27:24.257Z,9.98
2019-02-14T06:28:28.608Z,9.85
2019-02-14T06:29:32.171Z,11.30
2019-02-14T06:30:35.844Z,13.08
2019-02-14T06:31:39.483Z,11.53
2019-02-14T06:32:43.138Z,12.37
2019-02-14T06:33:46.770Z,10.53
2019-02-14T06:34:50.402Z,9.30
2019-02-14T06:35:54.078Z,8.60
2019-02-14T06:36:57.729Z,10.18
2019-02-14T06:38:01.433Z,9.45
2019-02-14T06:39:06.267Z,9.93
2019-02-14T06:40:11.974Z,9.13
2019-02-14T06:41:15.649Z,11.63
2019-02-14T06:42:19.295Z,10.95
2019-02-14T06:43:22.936Z,10.95
2019-02-14T06:44:26.567Z,12.47
2019-02-14T06:45:30.211Z,13.00
2019-02-14T06:46:33.948Z,12.43
2019-02-14T06:47:37.600Z,9.48
2019-02-14T06:48:41.231Z,10.08
2019-02-14T06:49:44.861Z,11.22
2019-02-14T06:50:48.494Z,10.03
2019-02-14T06:51:52.329Z,11.85
2019-02-14T06:52:55.965Z,11.85
2019-02-14T06:53:59.612Z,11.83
2019-02-14T06:55:05.118Z,10.08
2019-02-14T06:56:08.760Z,14.47
2019-02-14T06:57:17.033Z,12.18
2019-02-14T06:58:20.678Z,11.43
2019-02-14T06:59:24.315Z,10.32
2019-02-14T07:00:27.946Z,10.28
2019-02-14T07:01:31.587Z,10.20
2019-02-14T07:02:35.264Z,10.48
2019-02-14T07:03:38.833Z,10.00
2019-02-14T07:04:42.490Z,10.85
2019-02-14T07:05:46.133Z,9.90
2019-02-14T07:06:49.769Z,9.25
2019-02-14T07:07:53.362Z,9.60
2019-02-14T07:08:56.988Z,8.48
2019-02-14T07:10:00.873Z,8.98
2019-02-14T07:11:04.514Z,9.80
2019-02-14T07:12:08.161Z,9.15
2019-02-14T07:13:11.843Z,9.18
2019-02-14T07:14:15.459Z,8.70
2019-02-14T07:15:19.093Z,9.35
2019-02-14T07:16:22.728Z,9.08
2019-02-14T07:17:26.375Z,8.93
2019-02-14T07:18:29.967Z,8.50
2019-02-14T07:19:33.694Z,11.53
2019-02-14T07:20:37.328Z,9.50
2019-02-14T07:21:40.900Z,8.58
2019-02-14T07:22:44.554Z,10.25
2019-02-14T07:23:48.123Z,8.03
2019-02-14T07:24:51.760Z,9.25
2019-02-14T07:25:55.391Z,8.33
2019-02-14T07:26:58.965Z,7.92
2019-02-14T07:28:02.596Z,9.60
2019-02-14T07:29:06.277Z,9.65
2019-02-14T07:30:24.018Z,9.33
2019-02-14T07:31:27.665Z,10.48
2019-02-14T07:32:31.300Z,9.63
2019-02-14T07:33:34.949Z,9.03
2019-02-14T07:34:38.612Z,9.00
2019-02-14T07:35:42.243Z,9.25
2019-02-14T07:36:45.887Z,11.25
2019-02-14T07:37:49.619Z,12.68
2019-02-14T07:38:53.331Z,11.68
2019-02-14T07:39:57.006Z,10.80
2019-02-14T07:41:00.654Z,11.48
2019-02-14T07:42:04.403Z,10.15
2019-02-14T07:43:08.059Z,10.90
2019-02-14T07:44:11.702Z,8.80
2019-02-14T07:45:16.653Z,8.88
2019-02-14T07:46:22.663Z,12.18
2019-02-14T07:47:25.674Z,10.08
2019-02-14T07:48:29.325Z,12.43
2019-02-14T07:49:33.046Z,8.73
2019-02-14T07:50:36.715Z,8.43
2019-02-14T07:51:40.289Z,9.78
2019-02-14T07:52:43.918Z,8.43
2019-02-14T07:53:47.553Z,8.73
2019-02-14T07:54:51.201Z,10.98
2019-02-14T07:55:54.882Z,11.83
2019-02-14T07:56:58.591Z,9.75
2019-02-14T07:58:02.306Z,10.32
2019-02-14T07:59:06.018Z,9.10
2019-02-14T08:00:18.062Z,8.03
2019-02-14T08:01:21.740Z,8.58
2019-02-14T08:02:25.387Z,11.25
2019-02-14T08:03:29.100Z,9.33
2019-02-14T08:04:32.816Z,8.83
2019-02-14T08:05:36.452Z,11.00
2019-02-14T08:06:40.499Z,14.03
2019-02-14T08:07:44.169Z,11.57
2019-02-14T08:08:47.839Z,10.93
2019-02-14T08:09:51.854Z,12.18
2019-02-14T08:10:55.564Z,13.03
2019-02-14T08:11:59.251Z,12.15
2019-02-14T08:13:02.897Z,9.07
2019-02-14T08:14:06.530Z,8.60
2019-02-14T08:15:12.167Z,10.37
2019-02-14T08:16:15.801Z,9.17
2019-02-14T08:17:19.533Z,9.00
2019-02-14T08:18:23.223Z,12.57
2019-02-14T08:19:26.793Z,9.40
2019-02-14T08:20:30.492Z,7.67
2019-02-14T08:21:34.115Z,8.80
2019-02-14T08:22:37.799Z,6.57
2019-02-14T08:23:41.422Z,8.17
2019-02-14T08:24:45.067Z,8.73
2019-02-14T08:25:48.677Z,9.20
2019-02-14T08:26:52.695Z,11.40
2019-02-14T08:27:56.437Z,9.07
2019-02-14T08:29:00.072Z,10.13
2019-02-14T08:30:04.128Z,8.57
2019-02-14T08:31:07.742Z,7.37
2019-02-14T08:32:11.375Z,8.43
2019-02-14T08:33:15.041Z,7.63
2019-02-14T08:34:18.668Z,8.83
2019-02-14T08:35:22.305Z,8.40
2019-02-14T08:36:25.872Z,8.27
2019-02-14T08:37:29.504Z,7.70
2019-02-14T08:38:33.309Z,7.73
2019-02-14T08:39:36.943Z,6.63
2019-02-14T08:40:40.568Z,6.77
2019-02-14T08:41:44.205Z,6.13
2019-02-14T08:42:47.837Z,7.20
2019-02-14T08:43:51.436Z,7.30
2019-02-14T08:44:55.082Z,12.07
2019-02-14T08:45:58.747Z,7.47
2019-02-14T08:47:02.313Z,6.90
2019-02-14T08:48:06.442Z,6.07
2019-02-14T08:49:10.097Z,6.30
2019-02-14T08:50:13.813Z,6.93
2019-02-14T08:51:17.375Z,8.50
2019-02-14T08:52:21.017Z,5.80
2019-02-14T08:53:24.683Z,5.60
2019-02-14T08:54:28.411Z,6.03
2019-02-14T08:55:32.043Z,7.43
2019-02-14T08:56:35.682Z,6.43
2019-02-14T08:57:39.729Z,7.93
2019-02-14T08:58:43.371Z,6.13
2019-02-14T08:59:46.977Z,6.37
2019-02-14T09:00:50.673Z,6.10
2019-02-14T09:01:54.333Z,4.87
2019-02-14T09:02:57.988Z,5.97
2019-02-14T09:04:01.606Z,5.73
2019-02-14T09:05:06.751Z,5.10
2019-02-14T09:06:10.459Z,5.27
2019-02-14T09:07:14.788Z,5.40
2019-02-14T09:08:18.455Z,5.57
2019-02-14T09:09:22.233Z,6.17
2019-02-14T09:10:25.971Z,4.67
2019-02-14T09:11:29.607Z,6.50
2019-02-14T09:12:33.239Z,7.13
2019-02-14T09:13:36.801Z,7.03
2019-02-14T09:14:40.470Z,4.70
2019-02-14T09:15:44.100Z,4.53
2019-02-14T09:16:48.106Z,6.53
2019-02-14T09:17:51.818Z,5.17
2019-02-14T09:18:55.465Z,5.60
2019-02-14T09:19:59.034Z,5.17
2019-02-14T09:21:02.606Z,6.37
2019-02-14T09:22:06.240Z,5.87
2019-02-14T09:23:09.908Z,6.07
2019-02-14T09:24:13.498Z,6.07
2019-02-14T09:25:17.136Z,5.17
2019-02-14T09:26:20.774Z,6.30
2019-02-14T09:27:24.424Z,16.30
2019-02-14T09:28:28.064Z,5.70
2019-02-14T09:29:31.721Z,5.43
2019-02-14T09:30:35.364Z,5.50
2019-02-14T09:31:38.976Z,4.73
2019-02-14T09:32:42.684Z,5.70
2019-02-14T09:33:46.328Z,10.40
2019-02-14T09:34:50.003Z,7.90
2019-02-14T09:35:55.708Z,6.77
2019-02-14T09:36:59.351Z,11.27
2019-02-14T09:38:03.808Z,6.30
2019-02-14T09:39:07.619Z,70.97
2019-02-14T09:40:14.032Z,18.07
2019-02-14T09:41:17.665Z,6.67
2019-02-14T09:42:21.314Z,10.07
2019-02-14T09:43:29.894Z,7.93
2019-02-14T09:44:30.582Z,5.53
2019-02-14T09:45:34.263Z,9.33
2019-02-14T09:46:38.173Z,6.63
2019-02-14T09:47:41.909Z,8.67
2019-02-14T09:48:45.552Z,13.07
2019-02-14T09:49:49.209Z,6.30
2019-02-14T09:50:52.788Z,5.07
2019-02-14T09:51:56.422Z,7.27
2019-02-14T09:53:00.085Z,5.60
2019-02-14T09:54:03.722Z,5.27
2019-02-14T09:55:09.340Z,6.53
2019-02-14T09:56:13.087Z,20.43
2019-02-14T09:57:16.817Z,16.00
2019-02-14T09:58:22.738Z,6.03
2019-02-14T09:59:26.652Z,7.43
2019-02-14T10:00:30.273Z,6.70
2019-02-14T10:01:33.942Z,9.27
2019-02-14T10:02:37.585Z,11.27
2019-02-14T10:03:41.218Z,9.23
2019-02-14T10:04:44.892Z,7.67
2019-02-14T10:05:48.512Z,6.07
2019-02-14T10:06:52.170Z,12.47
2019-02-14T10:07:55.910Z,12.93
2019-02-14T10:09:00.747Z,20.60
2019-02-14T10:10:07.278Z,10.47
2019-02-14T10:11:11.100Z,5.13
2019-02-14T10:12:14.769Z,6.67
2019-02-14T10:13:18.843Z,8.53
2019-02-14T10:14:22.500Z,4.67
2019-02-14T10:15:26.340Z,6.60
2019-02-14T10:16:29.999Z,6.73
2019-02-14T10:17:34.113Z,5.27
2019-02-14T10:18:37.823Z,7.40
2019-02-14T10:19:41.535Z,4.83
2019-02-14T10:20:45.160Z,6.40
2019-02-14T10:21:48.898Z,20.73
2019-02-14T10:22:52.580Z,23.97
2019-02-14T10:23:56.222Z,12.63
2019-02-14T10:24:59.792Z,6.00
2019-02-14T10:26:03.412Z,3.97
2019-02-14T10:27:07.043Z,4.10
2019-02-14T10:28:11.118Z,4.07
2019-02-14T10:29:14.767Z,16.27
2019-02-14T10:30:22.731Z,5.70
2019-02-14T10:31:26.373Z,5.03
2019-02-14T10:32:29.943Z,4.77
2019-02-14T10:33:34.900Z,4.17
2019-02-14T10:34:38.680Z,4.90
2019-02-14T10:35:42.254Z,4.53
2019-02-14T10:36:45.880Z,4.20
2019-02-14T10:37:49.520Z,4.10
2019-02-14T10:38:53.188Z,3.70
2019-02-14T10:39:56.890Z,4.50
2019-02-14T10:41:00.513Z,5.10
2019-02-14T10:42:04.156Z,4.87
2019-02-14T10:43:07.797Z,3.97
2019-02-14T10:44:11.454Z,5.33
2019-02-14T10:45:17.232Z,4.30
2019-02-14T10:46:20.908Z,4.43
2019-02-14T10:47:24.687Z,4.03
2019-02-14T10:48:28.442Z,4.60
2019-02-14T10:49:32.205Z,3.70
2019-02-14T10:50:35.885Z,3.77
2019-02-14T10:51:39.521Z,3.70
2019-02-14T10:52:43.161Z,3.87
2019-02-14T10:53:46.793Z,4.60
2019-02-14T10:54:50.710Z,4.37
2019-02-14T10:55:54.366Z,3.90
2019-02-14T10:56:58.084Z,3.47
2019-02-14T10:58:01.716Z,3.70
2019-02-14T10:59:05.286Z,3.90
2019-02-14T11:00:16.386Z,4.23
2019-02-14T11:01:20.190Z,3.80
2019-02-14T11:02:23.754Z,3.90
2019-02-14T11:03:27.647Z,3.20
2019-02-14T11:04:31.287Z,3.40
2019-02-14T11:05:35.560Z,3.77
2019-02-14T11:06:39.410Z,6.73
2019-02-14T11:07:43.148Z,4.40
2019-02-14T11:08:46.838Z,3.20
2019-02-14T11:09:50.487Z,3.27
2019-02-14T11:10:54.197Z,3.43
2019-02-14T11:11:57.841Z,5.07
2019-02-14T11:13:01.553Z,7.97
2019-02-14T11:14:05.221Z,9.07
2019-02-14T11:15:11.575Z,6.10
2019-02-14T11:16:15.228Z,4.37
2019-02-14T11:17:18.969Z,5.70
2019-02-14T11:18:22.771Z,8.97
2019-02-14T11:19:26.431Z,5.57
2019-02-14T11:20:30.160Z,3.43
2019-02-14T11:21:33.853Z,2.73
2019-02-14T11:22:38.140Z,4.57
2019-02-14T11:23:41.755Z,3.03
2019-02-14T11:24:45.414Z,3.10
2019-02-14T11:25:49.040Z,3.00
2019-02-14T11:26:52.720Z,3.63
2019-02-14T11:27:56.347Z,3.03
2019-02-14T11:28:59.975Z,4.20
2019-02-14T11:30:04.606Z,2.77
2019-02-14T11:31:08.225Z,3.00
2019-02-14T11:32:11.856Z,3.43
2019-02-14T11:33:15.549Z,3.33
2019-02-14T11:34:19.131Z,2.87
2019-02-14T11:35:22.911Z,3.63
2019-02-14T11:36:26.483Z,4.20
2019-02-14T11:37:30.176Z,3.57
2019-02-14T11:38:40.433Z,3.00
2019-02-14T11:39:39.679Z,3.90
2019-02-14T11:40:43.426Z,3.20
2019-02-14T11:41:47.059Z,3.73
2019-02-14T11:42:50.698Z,3.17
2019-02-14T11:43:54.353Z,3.23
2019-02-14T11:44:57.991Z,3.37
2019-02-14T11:46:01.660Z,2.90
2019-02-14T11:47:05.344Z,3.27
2019-02-14T11:48:09.044Z,2.93
2019-02-14T11:49:12.682Z,2.93
2019-02-14T11:50:17.386Z,4.13
2019-02-14T11:51:21.054Z,3.53
2019-02-14T11:52:24.755Z,3.10
2019-02-14T11:53:29.439Z,3.47
2019-02-14T11:54:33.091Z,3.13
2019-02-14T11:55:37.152Z,4.73
2019-02-14T11:56:40.815Z,3.87
2019-02-14T11:57:44.515Z,3.10
2019-02-14T11:58:48.202Z,4.00
2019-02-14T11:59:51.853Z,3.97
2019-02-14T12:00:55.868Z,3.50
2019-02-14T12:01:59.566Z,3.70
2019-02-14T12:03:03.220Z,3.40
2019-02-14T12:04:07.013Z,3.50
2019-02-14T12:05:10.695Z,2.83
2019-02-14T12:06:17.544Z,3.13
2019-02-14T12:07:19.710Z,2.83
2019-02-14T12:08:23.728Z,3.27
2019-02-14T12:09:27.425Z,3.37
2019-02-14T12:10:31.272Z,3.40
2019-02-14T12:11:34.985Z,3.57
2019-02-14T12:12:39.229Z,2.60
2019-02-14T12:13:43.059Z,2.67
2019-02-14T12:14:46.763Z,2.90
2019-02-14T12:15:50.332Z,3.17
2019-02-14T12:16:54.139Z,3.33
2019-02-14T12:17:57.903Z,2.27
2019-02-14T12:19:02.617Z,4.00
2019-02-14T12:20:12.642Z,3.60
2019-02-14T12:21:16.524Z,3.30
2019-02-14T12:22:20.180Z,3.00
2019-02-14T12:23:24.161Z,3.00
2019-02-14T12:24:27.801Z,3.03
2019-02-14T12:25:32.911Z,3.00
2019-02-14T12:26:37.108Z,3.43
2019-02-14T12:27:40.815Z,2.80
2019-02-14T12:28:44.399Z,2.83
2019-02-14T12:29:48.095Z,2.40
2019-02-14T12:30:51.702Z,3.40
2019-02-14T12:31:55.668Z,5.27
2019-02-14T12:32:59.306Z,4.43
2019-02-14T12:34:03.083Z,3.47
2019-02-14T12:35:07.009Z,2.90
2019-02-14T12:36:10.783Z,3.90
2019-02-14T12:37:16.111Z,3.07
2019-02-14T12:38:19.975Z,4.17
2019-02-14T12:39:23.723Z,2.57
2019-02-14T12:40:27.331Z,3.47
2019-02-14T12:41:30.972Z,3.77
2019-02-14T12:42:34.626Z,4.43
2019-02-14T12:43:38.409Z,2.90
2019-02-14T12:44:42.029Z,2.67
2019-02-14T12:45:45.673Z,2.53
2019-02-14T12:46:49.368Z,2.90
2019-02-14T12:47:52.995Z,2.30
2019-02-14T12:48:56.762Z,2.80
2019-02-14T12:50:00.440Z,2.17
2019-02-14T12:51:04.077Z,2.70
2019-02-14T12:52:07.741Z,3.10
2019-02-14T12:53:13.051Z,2.60
2019-02-14T12:54:17.068Z,2.67
2019-02-14T12:55:20.766Z,3.03
2019-02-14T12:56:24.449Z,2.57
2019-02-14T12:57:28.144Z,2.70
2019-02-14T12:58:31.865Z,2.83
2019-02-14T12:59:35.595Z,2.77
2019-02-14T13:00:41.634Z,2.90
2019-02-14T13:01:45.342Z,2.43
2019-02-14T13:02:49.093Z,2.43
2019-02-14T13:03:52.783Z,2.23
2019-02-14T13:04:56.495Z,2.67
2019-02-14T13:06:00.177Z,2.73
2019-02-14T13:07:06.786Z,2.17
2019-02-14T13:08:10.660Z,2.30
2019-02-14T13:09:20.225Z,2.43
2019-02-14T13:10:20.173Z,1.93
2019-02-14T13:11:23.843Z,2.53
2019-02-14T13:12:27.476Z,3.07
2019-02-14T13:13:31.174Z,2.70
2019-02-14T13:14:34.875Z,2.70
2019-02-14T13:15:40.165Z,2.90
2019-02-14T13:16:43.899Z,2.80
2019-02-14T13:17:47.632Z,2.97
2019-02-14T13:18:51.258Z,2.83
2019-02-14T13:19:56.873Z,3.93
2019-02-14T13:21:00.348Z,7.20
2019-02-14T13:22:04.080Z,3.57
2019-02-14T13:23:07.715Z,3.43
2019-02-14T13:24:11.907Z,4.37
2019-02-14T13:25:15.619Z,4.03
2019-02-14T13:26:19.274Z,4.90
2019-02-14T13:27:22.987Z,5.13
2019-02-14T13:28:26.629Z,6.23
2019-02-14T13:29:30.270Z,6.90
2019-02-14T13:30:33.931Z,6.43
2019-02-14T13:31:37.550Z,6.20
2019-02-14T13:32:41.297Z,11.40
2019-02-14T13:33:44.982Z,8.20
2019-02-14T13:34:48.606Z,4.80
2019-02-14T13:35:52.240Z,5.30
2019-02-14T13:37:01.635Z,3.40
2019-02-14T13:38:01.187Z,4.43
2019-02-14T13:39:06.725Z,4.23
2019-02-14T13:40:10.367Z,4.57
2019-02-14T13:41:14.003Z,5.13
2019-02-14T13:42:17.724Z,6.37
2019-02-14T13:43:21.486Z,5.37
2019-02-14T13:44:25.116Z,3.73
2019-02-14T13:45:28.754Z,5.17
2019-02-14T13:46:32.500Z,9.30
2019-02-14T13:47:36.134Z,4.47
2019-02-14T13:48:39.806Z,5.20
2019-02-14T13:49:43.443Z,3.83
2019-02-14T13:50:47.076Z,3.67
2019-02-14T13:51:50.711Z,3.67
2019-02-14T13:52:54.349Z,3.40
2019-02-14T13:53:57.988Z,3.10
2019-02-14T13:55:01.690Z,4.60
2019-02-14T13:56:05.329Z,4.53
2019-02-14T13:57:08.962Z,4.00
2019-02-14T13:58:12.661Z,3.83
2019-02-14T13:59:16.361Z,6.37
2019-02-14T14:00:22.989Z,8.80
2019-02-14T14:01:26.634Z,5.27
2019-02-14T14:02:30.280Z,5.07
2019-02-14T14:03:33.906Z,13.20
2019-02-14T14:04:37.828Z,5.23
2019-02-14T14:05:41.482Z,3.63
2019-02-14T14:06:45.111Z,4.00
2019-02-14T14:07:48.768Z,5.83